マイアミ の空港の天気 - METARとTAF

マイアミ国際空港 ( KMIA / MIA ) - アメリカ合衆国 フロリダ州マイアミ
飛行場実況気象(Metar)
観測時間01/19 19:53 EST (01/20 00:53 UTC)
風向・風速南南東 2m/s
視程10km以上
天気現象
少しの雲 雲底高度 1370m
全天の4割程度の雲 雲底高度 7620m
気温23.3℃
湿度71%
気圧1016.5hPa
METARKMIA 200053Z 16004KT 10SM FEW045 SCT250 23/18 A3002 RMK AO2 SLP165 T02330178
過去の天気等 Google飛行場航空写真 Wunderground天気予報

過去48時間のMETAR

飛行場予報(TAF)
発表時間: 1/19 18:38 EST (1/19 23:38 UTC)
予報対象時間: 19日19時 EST ~ 20日19時 EST
風向・風速不定 2m/s
視程10km以上
少しの雲 雲底高度 1,220m
全天の4割程度の雲 雲底高度 7,620m
20日12時 EST から
風向・風速南 4m/s
視程10km以上
全天の4割程度の雲 雲底高度 1,070m
全天の4割程度の雲 雲底高度 7,620m
20日18時 EST から
風向・風速不定 3m/s
視程10km以上
全天の4割程度の雲 雲底高度 1,070m
KMIA 192338Z 2000/2024 VRB04KT P6SM FEW040 SCT250
FM201700 19008KT P6SM SCT035 SCT250
FM202300 VRB05KT P6SM SCT035